Search for airport 
image banner adimage banner adimage banner ad
image banner ad

2O7 - Independence

Located in Independence, United States

ICAO - 2O7, IATA -

Data provided by Airmate  

General information

Coordinates: N36°48'59" W118°12'18"
Elevation is 3908 feet MSL.
Magnetic variation is 15° East
View others Airports in California

Operational data

Special qualification required
Current time UTC:
Current local time:
Weather at : KBIH - Bishop ( 63 km )
METAR: KBIH 150956Z AUTO 14004KT 10SM CLR 21/M06 A2999 RMK AO2 SLP095 T02061056
TAF: KBIH 150901Z 1509/1606 14012KT P6SM SCT250 FM151200 33007KT P6SM SCT250 FM151700 17012G22KT P6SM FEW250 FM152300 24015G25KT P6SM FEW250 FM160400 34007KT P6SM FEW250
View NOTAMs / SUP AIP / TFR affecting this airport [VIEW]
Communications frequencies: [VIEW]

Runways:

RWY identifierQFULength (ft)Width (ft)SurfaceLDA (ft)
0568°149830EARTH
23248°149830EARTH
14157°353360ASPH
32337°353360ASPH

Airport contact information

Address: Independence United States

Satellite view of 2O7